Time;durP1;ratioP1;P1;durP2;ratioP2;P2;SDS_P1;SDS_P2;PMS_P1;PMS_P2;Temp;Humidity;BMP_temperature;BMP_pressure;BME280_temperature;BME280_humidity;BME280_pressure;Samples;Min_cycle;Max_cycle;Signal;HPM_P1;HPM_P2
2021/01/26 00:01:34;;;;;;;1.67;0.75;;;;;;;25.11;34.24;98033.91;4990157;28;20229;-57
2021/01/26 00:04:01;;;;;;;1.42;0.70;;;;;;;25.14;34.39;98031.84;4991972;28;20288;-63
2021/01/26 00:06:27;;;;;;;1.70;0.63;;;;;;;25.03;34.25;98031.31;4992629;28;20205;-63
2021/01/26 00:08:54;;;;;;;0.93;0.52;;;;;;;25.04;34.72;98042.84;4991669;28;20324;-61
2021/01/26 00:11:20;;;;;;;0.75;0.63;;;;;;;24.99;33.44;98035.38;4991020;28;20327;-62
2021/01/26 00:13:46;;;;;;;2.72;0.60;;;;;;;25.00;33.94;98036.22;4995720;28;20213;-62
2021/01/26 00:16:12;;;;;;;0.80;0.60;;;;;;;24.95;34.82;98039.44;4992837;28;20205;-62
2021/01/26 00:18:38;;;;;;;0.47;0.47;;;;;;;24.89;34.82;98029.50;4991007;28;20202;-63
2021/01/26 00:21:04;;;;;;;0.80;0.60;;;;;;;24.92;34.65;98029.13;4992436;28;20225;-63
2021/01/26 00:23:30;;;;;;;0.47;0.47;;;;;;;24.82;34.66;98033.94;4991891;28;20806;-62
2021/01/26 00:25:57;;;;;;;1.42;0.75;;;;;;;24.88;34.43;98035.84;4991381;28;20209;-59
2021/01/26 00:28:24;;;;;;;0.70;0.60;;;;;;;24.89;34.09;98032.16;4991945;28;20209;-56
2021/01/26 00:30:50;;;;;;;1.67;0.45;;;;;;;24.84;34.60;98035.38;4992430;28;20236;-62
2021/01/26 00:33:19;;;;;;;1.75;0.70;;;;;;;24.87;34.60;98043.03;4993003;28;20206;-62
2021/01/26 00:35:46;;;;;;;0.65;0.63;;;;;;;24.85;33.99;98045.09;4991823;28;20574;-64
2021/01/26 00:38:12;;;;;;;2.88;0.70;;;;;;;24.85;35.04;98044.25;4989467;28;20205;-63
2021/01/26 00:40:39;;;;;;;0.85;0.68;;;;;;;24.84;34.25;98042.59;4991059;28;20244;-62
2021/01/26 00:43:07;;;;;;;0.73;0.60;;;;;;;24.81;35.08;98042.97;4991521;28;20283;-63
2021/01/26 00:45:34;;;;;;;1.30;0.60;;;;;;;24.77;34.64;98047.84;4991535;28;20568;-62
2021/01/26 00:48:00;;;;;;;0.90;0.70;;;;;;;24.72;35.31;98037.69;4991043;28;20231;-63
2021/01/26 00:50:27;;;;;;;1.08;0.60;;;;;;;24.76;34.22;98038.16;4990706;28;20222;-62
2021/01/26 00:52:53;;;;;;;1.50;0.88;;;;;;;24.83;34.06;98046.25;4991647;28;20212;-62
2021/01/26 00:55:22;;;;;;;1.08;0.65;;;;;;;24.91;34.27;98043.50;4990567;28;20223;-62
2021/01/26 00:57:48;;;;;;;2.05;0.60;;;;;;;24.86;34.56;98052.06;4993216;28;20522;-63
2021/01/26 01:00:20;;;;;;;1.90;0.68;;;;;;;24.90;34.43;98058.72;4988928;28;20225;-63
2021/01/26 01:02:46;;;;;;;1.08;0.63;;;;;;;24.98;34.72;98056.94;4993020;28;20243;-63
2021/01/26 01:05:14;;;;;;;1.27;0.70;;;;;;;24.98;34.08;98056.94;4992050;28;20229;-62
2021/01/26 01:07:40;;;;;;;0.65;0.60;;;;;;;24.99;34.63;98051.41;4990408;28;20263;-62
2021/01/26 01:10:09;;;;;;;0.60;0.60;;;;;;;24.82;34.30;98056.16;4991952;28;20320;-63
2021/01/26 01:12:35;;;;;;;1.40;0.45;;;;;;;24.91;34.61;98054.19;4990163;28;20204;-62
2021/01/26 01:15:01;;;;;;;1.73;0.70;;;;;;;25.03;33.65;98057.22;4989470;28;20201;-63
2021/01/26 01:17:28;;;;;;;0.88;0.55;;;;;;;25.02;34.25;98072.44;4991046;28;20205;-63
2021/01/26 01:19:54;;;;;;;0.65;0.60;;;;;;;25.07;34.49;98066.53;4990379;28;20209;-64
2021/01/26 01:22:20;;;;;;;1.00;0.80;;;;;;;25.06;34.49;98068.41;4990175;28;20577;-63
2021/01/26 01:24:46;;;;;;;2.13;0.60;;;;;;;25.05;33.90;98064.06;4990230;28;20653;-64
2021/01/26 01:27:12;;;;;;;1.38;0.70;;;;;;;25.08;34.15;98073.53;4990861;28;20296;-62
2021/01/26 01:29:38;;;;;;;0.60;0.60;;;;;;;25.04;33.89;98073.09;4989180;28;20213;-63
2021/01/26 01:32:05;;;;;;;0.80;0.60;;;;;;;25.03;34.27;98084.81;4989185;28;20236;-63
2021/01/26 01:34:32;;;;;;;1.38;0.70;;;;;;;25.06;34.33;98089.81;4990101;28;20201;-63
2021/01/26 01:36:58;;;;;;;0.93;0.70;;;;;;;25.00;34.50;98095.06;4989650;28;20288;-63
2021/01/26 01:39:24;;;;;;;0.60;0.57;;;;;;;24.98;34.27;98095.25;4989985;28;20241;-61
2021/01/26 01:41:50;;;;;;;0.75;0.57;;;;;;;24.94;33.59;98099.28;4989853;28;20217;-63
2021/01/26 01:44:17;;;;;;;1.42;0.70;;;;;;;24.94;33.40;98101.97;4989462;28;20203;-58
2021/01/26 01:46:51;;;;;;;0.77;0.60;;;;;;;24.91;34.47;98103.19;4990853;28;20301;-62
2021/01/26 01:49:23;;;;;;;0.60;0.60;;;;;;;24.88;34.46;98097.34;4990235;28;20274;-62
2021/01/26 01:51:51;;;;;;;0.63;0.60;;;;;;;24.89;34.42;98104.34;4991204;28;20233;-63
2021/01/26 01:54:22;;;;;;;1.50;0.82;;;;;;;24.82;34.11;98103.44;4988648;28;20649;-62
2021/01/26 01:56:57;;;;;;;1.05;0.50;;;;;;;24.81;34.60;98104.44;4990726;28;20224;-62
2021/01/26 01:59:32;;;;;;;1.92;0.60;;;;;;;24.84;34.56;98112.94;4990256;28;20204;-63
2021/01/26 02:01:58;;;;;;;0.50;0.50;;;;;;;24.81;34.60;98107.94;4990489;28;20248;-63
2021/01/26 02:04:25;;;;;;;0.60;0.60;;;;;;;24.79;34.53;98111.81;4989137;28;20581;-63
2021/01/26 02:06:56;;;;;;;0.65;0.60;;;;;;;24.75;34.33;98120.22;4990014;28;20206;-63
2021/01/26 02:09:26;;;;;;;0.50;0.50;;;;;;;24.60;33.99;98122.03;4991159;28;20689;-62
2021/01/26 02:11:52;;;;;;;1.25;0.65;;;;;;;24.63;34.43;98127.03;4990337;28;20308;-63
2021/01/26 02:14:18;;;;;;;1.20;0.60;;;;;;;24.64;35.27;98128.66;4988670;28;20209;-63
2021/01/26 02:17:01;;;;;;;0.60;0.60;;;;;;;24.75;35.17;98128.22;4989314;28;20216;-62
2021/01/26 02:20:10;;;;;;;2.40;0.90;;;;;;;24.75;35.53;98135.44;4992159;28;20213;-63
2021/01/26 02:23:12;;;;;;;4.30;0.73;;;;;;;24.75;34.72;98132.75;4979609;28;20224;-63
2021/01/26 02:26:21;;;;;;;1.23;0.50;;;;;;;24.71;35.23;98134.97;4974372;28;20205;-63
2021/01/26 02:28:53;;;;;;;1.08;0.60;;;;;;;24.70;35.04;98141.31;4965556;28;20213;-63
2021/01/26 02:31:45;;;;;;;0.80;0.50;;;;;;;24.66;34.44;98139.19;4990680;28;20719;-63
2021/01/26 02:34:45;;;;;;;1.83;1.00;;;;;;;24.65;35.44;98138.38;4990175;28;20212;-63
2021/01/26 02:37:55;;;;;;;3.00;0.80;;;;;;;24.65;35.53;98146.38;4990875;28;20205;-62
2021/01/26 02:40:27;;;;;;;0.75;0.60;;;;;;;24.65;35.45;98148.22;4990892;28;20383;-63
2021/01/26 02:43:13;;;;;;;3.13;0.88;;;;;;;24.61;35.53;98136.22;4990960;28;20217;-63
2021/01/26 02:45:43;;;;;;;3.08;0.80;;;;;;;24.56;35.56;98136.75;4990722;28;20635;-63
2021/01/26 02:48:23;;;;;;;0.98;0.70;;;;;;;24.56;35.28;98142.09;4990031;28;20324;-62
2021/01/26 02:51:04;;;;;;;1.05;0.47;;;;;;;24.51;35.50;98147.97;4990788;28;20316;-63
2021/01/26 02:53:36;;;;;;;3.28;0.80;;;;;;;24.51;35.65;98133.78;4990649;28;20201;-63
2021/01/26 02:56:10;;;;;;;0.73;0.73;;;;;;;24.50;34.98;98149.00;4991247;28;20213;-62
2021/01/26 02:58:43;;;;;;;5.20;0.70;;;;;;;24.45;35.61;98147.84;4990782;28;20204;-62
2021/01/26 03:01:11;;;;;;;1.70;0.80;;;;;;;24.48;34.90;98159.03;4991398;28;20716;-59
2021/01/26 03:03:42;;;;;;;2.75;0.80;;;;;;;24.43;34.70;98160.56;4993305;28;20364;-63
2021/01/26 03:06:13;;;;;;;1.20;0.50;;;;;;;24.47;34.63;98156.53;4993996;28;20561;-62
2021/01/26 03:08:46;;;;;;;1.50;0.90;;;;;;;24.44;34.55;98148.88;4995181;28;20212;-62
2021/01/26 03:11:19;;;;;;;0.90;0.82;;;;;;;24.42;34.91;98150.91;4994920;28;20251;-62
2021/01/26 03:13:52;;;;;;;1.67;0.70;;;;;;;24.39;34.68;98146.75;4994637;28;20256;-63
2021/01/26 03:16:20;;;;;;;1.25;0.77;;;;;;;24.36;35.02;98150.63;4994859;28;20263;-63
2021/01/26 03:18:50;;;;;;;2.30;0.77;;;;;;;24.43;34.51;98144.53;4992131;28;20233;-61
2021/01/26 03:21:19;;;;;;;3.22;0.93;;;;;;;24.44;34.33;98146.22;4994417;28;20236;-62
2021/01/26 03:23:49;;;;;;;0.73;0.70;;;;;;;24.39;34.66;98141.41;4994662;28;20256;-62
2021/01/26 03:26:21;;;;;;;1.05;0.70;;;;;;;24.42;34.41;98132.22;4993001;28;20616;-60
2021/01/26 03:28:51;;;;;;;2.70;0.80;;;;;;;24.42;35.14;98124.19;4993899;28;20285;-60
2021/01/26 03:31:23;;;;;;;1.08;0.50;;;;;;;24.28;34.56;98128.47;4993291;28;20260;-62
2021/01/26 03:33:52;;;;;;;4.18;0.70;;;;;;;24.37;34.81;98127.41;4994102;28;20205;-61
2021/01/26 03:36:19;;;;;;;1.38;0.57;;;;;;;24.45;34.90;98123.81;4994251;28;20263;-62
2021/01/26 03:38:46;;;;;;;1.15;0.85;;;;;;;24.46;34.99;98130.81;4992111;28;20205;-61
2021/01/26 03:41:12;;;;;;;4.43;0.98;;;;;;;24.35;35.18;98132.09;4993179;28;20221;-61
2021/01/26 03:43:39;;;;;;;0.47;0.47;;;;;;;24.32;34.81;98119.91;4991672;28;20221;-63
2021/01/26 03:46:15;;;;;;;1.58;0.70;;;;;;;24.52;34.74;98124.75;4993176;28;20295;-63
2021/01/26 03:48:54;;;;;;;1.23;0.60;;;;;;;24.64;34.63;98128.66;4993658;28;20224;-62
2021/01/26 03:51:32;;;;;;;0.77;0.55;;;;;;;24.67;34.45;98133.66;4994440;28;20229;-62
2021/01/26 03:54:30;;;;;;;1.95;0.50;;;;;;;24.65;34.25;98138.38;4994089;28;20201;-61
2021/01/26 03:57:25;;;;;;;0.98;0.60;;;;;;;24.69;35.01;98128.94;4985454;28;20205;-63
2021/01/26 04:00:14;;;;;;;1.35;0.93;;;;;;;24.75;34.90;98128.22;4993150;28;20241;-62
2021/01/26 04:03:02;;;;;;;1.77;0.70;;;;;;;24.81;34.94;98136.53;4992753;28;20237;-60
2021/01/26 04:05:36;;;;;;;2.50;0.73;;;;;;;24.74;34.93;98129.22;4994210;28;20209;-63
2021/01/26 04:08:10;;;;;;;1.98;0.77;;;;;;;24.79;34.89;98130.53;4993572;28;20209;-63
2021/01/26 04:10:43;;;;;;;0.65;0.65;;;;;;;24.79;33.82;98128.69;4992958;28;20323;-62
2021/01/26 04:13:13;;;;;;;0.70;0.70;;;;;;;24.58;34.48;98118.72;4992842;28;20221;-62
2021/01/26 04:15:46;;;;;;;1.08;0.70;;;;;;;24.68;34.89;98124.63;4993055;28;20297;-62
2021/01/26 04:18:14;;;;;;;0.80;0.50;;;;;;;24.68;34.91;98118.44;4992091;28;20206;-62
2021/01/26 04:20:42;;;;;;;2.08;0.55;;;;;;;24.63;34.67;98108.31;4991968;28;20596;-60
2021/01/26 04:23:09;;;;;;;2.05;0.65;;;;;;;24.68;34.55;98113.94;4992229;28;20635;-63
2021/01/26 04:25:38;;;;;;;0.68;0.57;;;;;;;24.63;34.00;98120.84;4993134;28;20205;-63
2021/01/26 04:28:06;;;;;;;0.98;0.88;;;;;;;24.60;35.11;98123.88;4992775;28;20211;-61
2021/01/26 04:30:32;;;;;;;1.05;0.68;;;;;;;24.60;34.28;98116.69;4992719;28;20264;-63
2021/01/26 04:33:01;;;;;;;0.80;0.63;;;;;;;24.62;35.02;98117.34;4992427;28;20197;-62
2021/01/26 04:35:27;;;;;;;0.73;0.50;;;;;;;24.56;35.15;98120.72;4990064;28;20205;-62
2021/01/26 04:37:54;;;;;;;2.65;0.60;;;;;;;24.55;34.19;98119.09;4990871;28;20235;-63
2021/01/26 04:40:21;;;;;;;0.90;0.60;;;;;;;24.38;35.35;98105.84;4992082;28;20225;-63
2021/01/26 04:42:51;;;;;;;1.23;0.70;;;;;;;24.33;34.55;98121.59;4992787;28;20659;-60
2021/01/26 04:45:25;;;;;;;0.50;0.50;;;;;;;24.43;35.07;98112.47;4991337;28;20211;-63
2021/01/26 04:48:00;;;;;;;1.52;0.65;;;;;;;24.59;34.54;98114.22;4991890;28;20213;-63
2021/01/26 04:50:33;;;;;;;2.15;0.75;;;;;;;24.62;35.28;98122.69;4992539;28;20273;-62
2021/01/26 04:53:14;;;;;;;1.05;0.70;;;;;;;24.58;34.91;98121.41;4992550;28;20236;-62
2021/01/26 04:55:52;;;;;;;1.20;0.60;;;;;;;24.68;34.41;98123.78;4992687;28;20703;-61
2021/01/26 04:58:34;;;;;;;0.63;0.63;;;;;;;24.81;34.23;98123.16;4992406;28;20621;-62
2021/01/26 05:01:13;;;;;;;3.05;0.70;;;;;;;24.71;34.20;98129.63;4992080;28;20232;-62
2021/01/26 05:03:57;;;;;;;1.13;0.80;;;;;;;24.66;35.16;98125.81;4991331;28;20660;-62
2021/01/26 05:06:34;;;;;;;1.20;0.55;;;;;;;24.79;34.26;98141.25;4991829;28;20201;-62
2021/01/26 05:09:03;;;;;;;1.05;0.85;;;;;;;24.82;33.68;98130.19;4993045;28;20216;-62
2021/01/26 05:11:32;;;;;;;0.82;0.60;;;;;;;24.82;34.78;98144.38;4989072;28;20248;-62
2021/01/26 05:14:02;;;;;;;0.82;0.50;;;;;;;24.77;34.69;98148.63;4991798;28;20296;-62
2021/01/26 05:16:33;;;;;;;2.53;1.17;;;;;;;24.91;34.68;98142.44;4991839;28;20251;-62
2021/01/26 05:19:06;;;;;;;3.78;0.85;;;;;;;25.02;34.49;98150.00;4991542;28;20692;-62
2021/01/26 05:21:40;;;;;;;1.42;0.70;;;;;;;25.07;33.64;98158.31;4992035;28;20291;-61
2021/01/26 05:24:15;;;;;;;3.80;0.77;;;;;;;24.87;34.84;98162.53;4990817;28;20224;-62
2021/01/26 05:26:42;;;;;;;1.15;0.60;;;;;;;24.92;34.25;98163.66;4991687;28;20220;-62
2021/01/26 05:29:09;;;;;;;1.25;0.60;;;;;;;24.96;34.84;98160.59;4989647;28;20208;-62
2021/01/26 05:31:36;;;;;;;0.70;0.70;;;;;;;25.02;34.80;98158.03;4991265;28;20233;-62
2021/01/26 05:34:07;;;;;;;1.98;0.50;;;;;;;24.90;34.99;98159.50;4990965;28;20201;-63
2021/01/26 05:36:35;;;;;;;0.63;0.60;;;;;;;24.94;34.91;98160.78;4992091;28;20201;-55
2021/01/26 05:39:02;;;;;;;2.60;0.80;;;;;;;24.96;34.90;98165.97;4991113;28;20231;-61
2021/01/26 05:41:30;;;;;;;1.25;0.80;;;;;;;25.03;34.00;98174.91;4990030;28;20252;-62
2021/01/26 05:43:59;;;;;;;1.50;0.50;;;;;;;24.93;34.32;98167.13;4990528;28;20225;-62
2021/01/26 05:46:34;;;;;;;0.75;0.45;;;;;;;24.97;34.70;98154.25;4992145;28;20668;-63
2021/01/26 05:49:00;;;;;;;1.27;0.70;;;;;;;25.05;34.35;98155.00;4989811;28;20263;-62
2021/01/26 05:51:29;;;;;;;0.60;0.50;;;;;;;25.03;34.62;98154.34;4990339;28;20793;-62
2021/01/26 05:53:59;;;;;;;1.20;0.55;;;;;;;25.06;34.30;98155.81;4990669;28;20312;-61
2021/01/26 05:56:26;;;;;;;1.05;0.70;;;;;;;24.90;34.78;98154.97;4991003;28;20216;-61
2021/01/26 05:58:52;;;;;;;1.17;0.70;;;;;;;24.93;34.40;98159.13;4989955;28;20246;-62
2021/01/26 06:01:28;;;;;;;0.68;0.60;;;;;;;25.07;33.91;98154.81;4988477;28;20776;-62
2021/01/26 06:04:10;;;;;;;1.05;0.57;;;;;;;25.12;33.34;98163.13;4990954;28;20229;-60
2021/01/26 06:06:51;;;;;;;1.55;0.70;;;;;;;24.96;33.46;98164.09;4990119;28;20618;-62
2021/01/26 06:09:38;;;;;;;1.42;0.70;;;;;;;24.96;33.73;98169.47;4991187;28;20209;-62
2021/01/26 06:12:10;;;;;;;1.90;0.68;;;;;;;25.04;33.40;98181.91;4990071;28;20312;-62
2021/01/26 06:14:37;;;;;;;2.20;0.80;;;;;;;25.08;33.16;98172.50;4990434;28;20205;-62
2021/01/26 06:17:05;;;;;;;3.00;0.73;;;;;;;25.15;33.48;98188.66;4990135;28;20651;-63
2021/01/26 06:19:31;;;;;;;0.95;0.60;;;;;;;25.04;33.99;98187.28;4991098;28;20307;-63
2021/01/26 06:21:57;;;;;;;5.75;0.95;;;;;;;24.92;33.63;98185.03;4989654;28;20221;-63
2021/01/26 06:24:26;;;;;;;4.57;0.90;;;;;;;24.94;33.83;98190.22;4989429;28;20229;-58
2021/01/26 06:27:09;;;;;;;16.40;2.65;;;;;;;24.83;33.70;98191.50;4990218;28;20288;-65
2021/01/26 06:29:44;;;;;;;9.25;1.60;;;;;;;24.91;34.42;98187.88;4972113;28;20293;-64
2021/01/26 06:32:19;;;;;;;22.52;2.63;;;;;;;24.97;34.40;98197.03;4972448;28;20614;-66
2021/01/26 06:35:04;;;;;;;8.27;2.03;;;;;;;25.11;35.47;98193.53;4972481;28;20244;-65
2021/01/26 06:37:57;;;;;;;9.88;1.73;;;;;;;25.28;34.72;98210.28;4972395;28;20210;-63
2021/01/26 06:40:37;;;;;;;6.65;1.65;;;;;;;25.23;34.20;98199.25;4975518;28;20254;-63
2021/01/26 06:43:19;;;;;;;8.63;1.40;;;;;;;25.33;34.74;98205.22;4991630;28;20217;-62
2021/01/26 06:45:57;;;;;;;15.73;2.28;;;;;;;25.27;34.56;98208.63;4994697;28;20586;-63
2021/01/26 06:48:48;;;;;;;16.60;2.08;;;;;;;25.39;35.17;98211.66;4994687;28;20244;-66
2021/01/26 06:51:36;;;;;;;13.25;2.25;;;;;;;25.14;34.87;98217.25;4998246;28;20311;-68
2021/01/26 06:54:21;;;;;;;10.95;1.67;;;;;;;25.10;34.82;98218.66;4994271;28;20207;-67
2021/01/26 06:57:17;;;;;;;19.65;1.83;;;;;;;25.08;35.42;98223.31;4993788;28;20212;-67
2021/01/26 07:00:10;;;;;;;7.57;1.85;;;;;;;25.27;34.68;98230.03;4994098;28;20245;-65
2021/01/26 07:03:11;;;;;;;8.77;2.03;;;;;;;25.42;34.68;98241.56;4989213;28;20232;-66
2021/01/26 07:06:29;;;;;;;11.68;1.98;;;;;;;25.49;35.11;98247.81;4993966;28;20353;-67
2021/01/26 07:09:25;;;;;;;19.00;2.28;;;;;;;25.36;33.91;98244.97;4978951;28;20296;-68
2021/01/26 07:12:23;;;;;;;10.05;1.40;;;;;;;25.52;33.37;98252.00;4986221;28;20264;-68
2021/01/26 07:15:16;;;;;;;17.30;2.05;;;;;;;25.65;34.79;98254.03;4994382;28;20668;-67
2021/01/26 07:17:58;;;;;;;11.77;1.70;;;;;;;25.55;34.26;98261.53;4960704;28;20306;-68
2021/01/26 07:20:32;;;;;;;7.63;1.45;;;;;;;25.54;34.84;98262.53;4994222;28;20267;-68
2021/01/26 07:23:22;;;;;;;7.53;1.38;;;;;;;25.49;34.84;98271.91;4994382;28;20283;-67
2021/01/26 07:26:32;;;;;;;15.30;2.03;;;;;;;25.59;33.12;98270.81;4994367;28;20289;-67
2021/01/26 07:29:45;;;;;;;9.65;1.48;;;;;;;25.57;33.95;98272.88;4964481;28;20707;-67
2021/01/26 07:32:18;;;;;;;5.22;1.58;;;;;;;25.45;34.03;98280.53;4989309;28;20700;-68
2021/01/26 07:34:57;;;;;;;7.35;1.42;;;;;;;25.38;34.41;98291.13;4993316;28;20239;-68
2021/01/26 07:37:30;;;;;;;5.07;1.77;;;;;;;25.25;34.91;98290.91;4993990;28;20576;-67
2021/01/26 07:40:03;;;;;;;8.98;1.92;;;;;;;25.32;34.22;98302.56;4994001;28;20664;-68
2021/01/26 07:42:34;;;;;;;7.57;1.33;;;;;;;25.34;35.07;98313.91;4994252;28;20649;-67
2021/01/26 07:45:07;;;;;;;9.25;2.03;;;;;;;25.29;34.04;98313.63;4992069;28;20216;-67
2021/01/26 07:47:37;;;;;;;8.13;1.73;;;;;;;25.30;34.73;98316.13;4993983;28;20296;-68
2021/01/26 07:50:09;;;;;;;9.95;1.30;;;;;;;25.46;34.08;98325.00;4993826;28;20209;-67
2021/01/26 07:52:39;;;;;;;4.55;1.02;;;;;;;25.35;34.98;98323.59;4994838;28;20189;-72
2021/01/26 07:55:10;;;;;;;3.10;1.13;;;;;;;25.40;35.08;98323.06;4993865;28;20206;-68
2021/01/26 07:57:41;;;;;;;5.07;1.10;;;;;;;25.37;34.36;98326.91;4994370;28;20584;-68
2021/01/26 08:00:10;;;;;;;7.07;1.15;;;;;;;25.46;34.81;98336.56;4994848;28;20214;-69
2021/01/26 08:02:40;;;;;;;4.88;1.33;;;;;;;25.45;34.98;98334.88;4992026;28;20324;-69
2021/01/26 08:05:14;;;;;;;11.85;1.25;;;;;;;25.41;34.90;98330.88;4993704;28;20205;-69
2021/01/26 08:07:40;;;;;;;5.18;1.50;;;;;;;25.51;33.74;98327.94;4992594;28;20292;-69
2021/01/26 08:10:17;;;;;;;7.93;1.27;;;;;;;25.59;33.57;98330.53;4994447;28;20198;-69
2021/01/26 08:12:46;;;;;;;3.75;1.35;;;;;;;25.64;33.57;98335.34;4993758;28;20237;-67
2021/01/26 08:15:29;;;;;;;3.15;1.10;;;;;;;25.58;33.39;98339.59;4995096;28;20236;-68
2021/01/26 08:17:55;;;;;;;4.57;0.90;;;;;;;25.62;34.04;98343.56;4997250;28;20240;-69
2021/01/26 08:20:30;;;;;;;2.08;0.95;;;;;;;25.57;34.04;98339.78;4995111;28;20312;-71
2021/01/26 08:23:00;;;;;;;2.60;1.00;;;;;;;25.60;33.32;98356.31;4997451;28;20229;-69
2021/01/26 08:25:29;;;;;;;3.15;0.85;;;;;;;25.66;33.56;98354.72;4993570;28;20720;-70
2021/01/26 08:28:00;;;;;;;7.70;1.25;;;;;;;25.81;33.54;98344.88;4991872;28;20464;-67
2021/01/26 08:31:00;;;;;;;5.45;1.13;;;;;;;25.72;33.23;98361.22;4993706;28;20232;-68
2021/01/26 08:33:28;;;;;;;2.70;1.20;;;;;;;25.71;33.29;98368.41;4990679;28;20253;-69
2021/01/26 08:36:08;;;;;;;2.30;0.90;;;;;;;25.64;33.16;98362.94;4992535;28;20212;-70
2021/01/26 08:38:47;;;;;;;6.18;1.08;;;;;;;25.69;33.45;98378.47;4992747;28;20205;-69
2021/01/26 08:41:50;;;;;;;4.28;1.25;;;;;;;25.74;33.14;98377.94;4993060;28;20220;-68
2021/01/26 08:44:53;;;;;;;3.78;1.13;;;;;;;25.81;32.26;98374.34;4991927;28;20316;-69
2021/01/26 08:47:47;;;;;;;3.08;1.13;;;;;;;25.82;32.68;98388.56;4992627;28;20680;-69
2021/01/26 08:50:23;;;;;;;4.28;1.10;;;;;;;25.79;32.51;98388.91;4993930;28;20283;-71
2021/01/26 08:52:52;;;;;;;2.90;0.90;;;;;;;25.85;32.65;98375.63;4993152;28;20247;-70
2021/01/26 08:55:39;;;;;;;2.40;1.02;;;;;;;25.89;33.34;98380.63;4992647;28;20280;-68
2021/01/26 08:58:10;;;;;;;3.85;1.00;;;;;;;25.95;33.08;98375.38;4991409;28;20257;-69
2021/01/26 09:00:39;;;;;;;4.60;1.40;;;;;;;25.84;32.30;98376.63;4992539;28;20317;-70
2021/01/26 09:03:30;;;;;;;5.28;1.05;;;;;;;26.05;32.59;98383.16;4990723;28;20308;-70
2021/01/26 09:05:59;;;;;;;6.85;1.10;;;;;;;25.98;32.19;98384.88;4992714;28;20348;-69
2021/01/26 09:08:49;;;;;;;3.33;0.85;;;;;;;25.97;32.34;98399.31;4992123;28;20209;-68
2021/01/26 09:11:21;;;;;;;1.10;0.60;;;;;;;26.02;32.73;98395.06;4993179;28;20238;-69
2021/01/26 09:13:49;;;;;;;2.83;0.85;;;;;;;25.98;32.22;98393.78;4991959;28;20225;-69
2021/01/26 09:16:20;;;;;;;2.53;0.80;;;;;;;25.99;33.37;98394.59;4989951;28;20285;-73
2021/01/26 09:18:53;;;;;;;4.07;1.23;;;;;;;26.01;33.34;98405.94;4992962;28;20628;-69
2021/01/26 09:21:20;;;;;;;2.28;1.00;;;;;;;26.05;31.87;98409.94;4992433;28;20573;-70
2021/01/26 09:23:52;;;;;;;4.95;1.42;;;;;;;26.08;32.92;98406.03;4992735;28;20240;-70
2021/01/26 09:26:18;;;;;;;5.95;1.02;;;;;;;26.07;33.20;98397.19;4993143;28;20209;-69
2021/01/26 09:28:48;;;;;;;3.08;0.90;;;;;;;26.07;32.98;98391.84;4992578;28;20228;-70
2021/01/26 09:31:17;;;;;;;4.63;1.15;;;;;;;26.11;32.44;98403.81;4996730;28;20232;-69
2021/01/26 09:33:44;;;;;;;2.10;1.35;;;;;;;25.65;29.32;98403.97;4997579;28;20228;-71
2021/01/26 09:36:13;;;;;;;5.57;1.40;;;;;;;25.21;27.82;98408.13;4997564;28;20306;-71
2021/01/26 09:38:41;;;;;;;6.93;1.80;;;;;;;24.66;27.63;98415.34;5009006;28;20208;-70
2021/01/26 09:41:17;;;;;;;3.00;1.55;;;;;;;24.62;27.83;98424.72;5000908;28;20226;-70
2021/01/26 09:43:45;;;;;;;3.90;1.30;;;;;;;24.48;27.85;98426.28;4992178;28;20247;-69
2021/01/26 09:46:15;;;;;;;6.68;1.23;;;;;;;24.75;28.67;98425.00;4992475;28;20344;-71
2021/01/26 09:48:45;;;;;;;7.72;1.48;;;;;;;24.91;29.72;98426.75;4993703;28;20209;-68
2021/01/26 09:51:15;;;;;;;9.32;1.10;;;;;;;25.01;30.01;98426.50;4991870;28;20746;-68
2021/01/26 09:53:44;;;;;;;15.63;1.45;;;;;;;25.21;30.48;98432.19;4990843;28;20220;-69
2021/01/26 09:56:16;;;;;;;3.67;1.10;;;;;;;25.23;30.32;98437.38;4990415;28;20205;-70
2021/01/26 09:58:45;;;;;;;5.72;1.40;;;;;;;25.32;31.10;98439.03;4994718;28;20220;-70
2021/01/26 10:01:15;;;;;;;10.40;1.95;;;;;;;25.39;31.68;98436.47;4993253;28;20221;-70
2021/01/26 10:03:41;;;;;;;9.38;0.95;;;;;;;25.45;30.93;98435.75;4992939;28;20225;-68
2021/01/26 10:06:09;;;;;;;5.35;1.20;;;;;;;25.56;31.40;98437.16;4992050;28;20300;-67
2021/01/26 10:08:35;;;;;;;6.90;1.10;;;;;;;25.65;30.80;98436.09;4989916;28;20313;-72
2021/01/26 10:11:14;;;;;;;4.30;1.13;;;;;;;25.70;31.32;98441.72;4990098;28;20229;-72
2021/01/26 10:13:41;;;;;;;3.80;1.23;;;;;;;25.88;31.57;98443.22;4991430;28;20236;-72
2021/01/26 10:16:28;;;;;;;1.92;0.98;;;;;;;25.88;31.28;98444.09;4989548;28;20325;-72
2021/01/26 10:18:55;;;;;;;2.40;1.00;;;;;;;25.97;31.56;98439.50;4991557;28;20208;-69
2021/01/26 10:21:28;;;;;;;2.65;0.85;;;;;;;26.00;30.88;98447.16;4988945;28;20252;-68
2021/01/26 10:24:00;;;;;;;3.00;0.90;;;;;;;26.08;31.18;98457.81;4990500;28;20280;-66
2021/01/26 10:26:28;;;;;;;7.13;1.20;;;;;;;26.02;31.61;98458.53;4990389;28;20645;-69
2021/01/26 10:29:13;;;;;;;2.70;0.90;;;;;;;25.96;31.29;98456.56;4990262;28;20201;-66
2021/01/26 10:31:45;;;;;;;6.85;1.10;;;;;;;25.96;31.65;98464.59;4991172;28;20312;-70
2021/01/26 10:34:34;;;;;;;11.00;1.20;;;;;;;25.78;31.58;98451.50;4989246;28;20204;-69
2021/01/26 10:37:24;;;;;;;9.57;1.60;;;;;;;25.81;31.38;98469.91;4991062;28;20556;-67
2021/01/26 10:40:14;;;;;;;5.63;1.13;;;;;;;25.74;31.96;98466.28;4989706;28;20240;-66
2021/01/26 10:42:45;;;;;;;15.80;1.38;;;;;;;25.72;32.00;98473.69;4990251;28;20228;-67
2021/01/26 10:45:13;;;;;;;9.27;1.10;;;;;;;25.70;32.24;98470.34;4990205;28;20288;-67
2021/01/26 10:47:41;;;;;;;6.03;1.10;;;;;;;25.84;32.31;98478.41;4989546;28;20527;-68
2021/01/26 10:50:10;;;;;;;9.10;1.10;;;;;;;25.89;31.84;98474.38;4989137;28;20216;-69
2021/01/26 10:52:41;;;;;;;4.05;1.05;;;;;;;25.61;32.17;98480.28;4990322;28;20208;-69
2021/01/26 10:55:09;;;;;;;5.47;1.13;;;;;;;25.57;32.94;98470.97;4990960;28;20233;-69
2021/01/26 10:57:36;;;;;;;6.75;1.10;;;;;;;25.57;33.21;98481.66;4991097;28;20598;-69
2021/01/26 11:00:06;;;;;;;1.70;1.10;;;;;;;25.53;32.24;98475.00;4989957;28;20225;-69
2021/01/26 11:02:33;;;;;;;2.53;0.93;;;;;;;25.61;32.61;98480.28;4990610;28;20256;-70
2021/01/26 11:04:59;;;;;;;2.00;1.00;;;;;;;25.56;32.56;98483.50;4990719;28;20248;-69
2021/01/26 11:07:26;;;;;;;3.13;0.57;;;;;;;25.49;33.11;98480.69;4988951;28;20296;-69
2021/01/26 11:09:52;;;;;;;1.83;0.80;;;;;;;25.49;33.23;98480.69;4989897;28;20632;-69
2021/01/26 11:12:19;;;;;;;3.35;0.80;;;;;;;25.52;33.29;98478.69;4989155;28;20305;-70
2021/01/26 11:14:45;;;;;;;4.30;1.00;;;;;;;25.55;33.14;98489.06;4989390;28;20201;-69
2021/01/26 11:17:12;;;;;;;1.52;0.70;;;;;;;25.57;33.25;98492.38;4988746;28;20256;-69
2021/01/26 11:19:38;;;;;;;7.13;1.08;;;;;;;25.48;33.45;98489.75;4989666;28;20309;-70
2021/01/26 11:22:05;;;;;;;4.40;0.90;;;;;;;25.46;32.34;98490.94;4992356;28;20232;-70
2021/01/26 11:24:31;;;;;;;3.03;0.65;;;;;;;25.44;32.66;98492.97;4994342;28;20287;-68
2021/01/26 11:26:57;;;;;;;4.75;0.75;;;;;;;25.47;33.40;98476.56;4993309;28;20244;-70
2021/01/26 11:29:23;;;;;;;2.78;0.70;;;;;;;25.60;33.89;98481.31;4994522;28;20300;-68
2021/01/26 11:31:50;;;;;;;2.47;0.82;;;;;;;25.61;33.79;98482.97;4993095;28;20268;-69
2021/01/26 11:34:17;;;;;;;2.10;0.68;;;;;;;25.70;33.89;98484.56;4992491;28;20495;-69
2021/01/26 11:36:43;;;;;;;10.00;0.95;;;;;;;25.73;34.42;98484.22;4992774;28;20292;-68
2021/01/26 11:39:09;;;;;;;2.55;0.85;;;;;;;25.66;34.75;98481.44;4993016;28;20205;-69
2021/01/26 11:41:35;;;;;;;3.17;0.90;;;;;;;25.60;34.00;98479.47;4991984;28;20291;-70
2021/01/26 11:44:01;;;;;;;10.82;1.15;;;;;;;25.56;34.53;98470.09;4992328;28;20225;-69
2021/01/26 11:46:28;;;;;;;7.63;0.82;;;;;;;25.49;33.82;98463.81;4992167;28;20244;-68
2021/01/26 11:48:54;;;;;;;6.50;0.80;;;;;;;25.44;33.71;98484.94;4992771;28;20328;-69
2021/01/26 11:51:21;;;;;;;2.42;0.80;;;;;;;25.40;34.44;98481.78;4992629;28;20287;-67
2021/01/26 11:53:47;;;;;;;5.63;1.13;;;;;;;25.49;34.70;98488.72;4991402;28;20616;-69
2021/01/26 11:56:13;;;;;;;4.82;1.05;;;;;;;25.29;28.79;98488.38;4993146;28;20244;-69
2021/01/26 11:58:40;;;;;;;4.43;1.38;;;;;;;25.07;27.78;98495.34;4994699;28;20617;-66
2021/01/26 12:01:06;;;;;;;6.63;1.63;;;;;;;24.88;26.53;98493.09;4991647;28;20437;-68